createdAt,value
2023-07-04T00:00:27.440Z,96935.34
2023-07-04T00:02:30.481Z,96930.75
2023-07-04T00:04:34.734Z,96926.94
2023-07-04T00:06:37.989Z,96940.47
2023-07-04T00:08:41.081Z,96929.66
2023-07-04T00:10:44.712Z,96929.66
2023-07-04T00:12:47.763Z,96930.47
2023-07-04T00:14:50.640Z,96931.25
2023-07-04T00:16:53.499Z,96921.81
2023-07-04T00:18:56.442Z,96929.13
2023-07-04T00:21:05.104Z,96924.28
2023-07-04T00:23:08.023Z,96918.34
2023-07-04T00:25:11.389Z,96921.59
2023-07-04T00:27:14.316Z,96927.78
2023-07-04T00:29:18.172Z,96926.44
2023-07-04T00:31:24.810Z,96932.94
2023-07-04T00:33:29.533Z,96929.69
2023-07-04T00:35:32.357Z,96929.97
2023-07-04T00:37:38.013Z,96925.38
2023-07-04T00:39:41.342Z,96931.34
2023-07-04T00:41:44.310Z,96935.69
2023-07-04T00:44:00.804Z,96928.13
2023-07-04T00:46:04.553Z,96933.81
2023-07-04T00:48:07.702Z,96929.22
2023-07-04T00:50:11.074Z,96934.34
2023-07-04T00:52:18.157Z,96931.34
2023-07-04T00:54:25.930Z,96928.13
2023-07-04T00:56:31.877Z,96925.16
2023-07-04T00:58:35.728Z,96922.47
2023-07-04T01:00:39.844Z,96926.78
2023-07-04T01:02:47.105Z,96927.31
2023-07-04T01:04:52.130Z,96929.22
2023-07-04T01:07:01.607Z,96921.13
2023-07-04T01:09:09.161Z,96924.34
2023-07-04T01:11:18.640Z,96929.47
2023-07-04T01:13:35.114Z,96929.16
2023-07-04T01:15:38.178Z,96924.56
2023-07-04T01:17:43.112Z,96923.25
2023-07-04T01:19:46.700Z,96931.34
2023-07-04T01:21:54.187Z,96933.25
2023-07-04T01:24:07.782Z,96921.34
2023-07-04T01:26:26.811Z,96923.53
2023-07-04T01:28:31.123Z,96931.34
2023-07-04T01:30:39.823Z,96922.16
2023-07-04T01:32:43.413Z,96927.56
2023-07-04T01:34:47.155Z,96929.16
2023-07-04T01:36:50.552Z,96930.25
2023-07-04T01:38:54.028Z,96927.56
2023-07-04T01:40:56.994Z,96935.69
2023-07-04T01:43:01.192Z,96924.84
2023-07-04T01:45:06.817Z,96927.56
2023-07-04T01:47:09.836Z,96927.03
2023-07-04T01:49:12.744Z,96922.72
2023-07-04T01:51:15.800Z,96923.53
2023-07-04T01:53:18.849Z,96926.22
2023-07-04T01:55:21.924Z,96921.91
2023-07-04T01:57:24.927Z,96915.69
2023-07-04T01:59:29.198Z,96913.81
2023-07-04T02:01:32.394Z,96918.41
2023-07-04T02:03:36.000Z,96928.41
2023-07-04T02:05:39.192Z,96927.59
2023-07-04T02:07:42.549Z,96917.06
2023-07-04T02:09:45.742Z,96916.25
2023-07-04T02:11:48.640Z,96920.03
2023-07-04T02:13:51.666Z,96914.13
2023-07-04T02:15:56.763Z,96916.81
2023-07-04T02:17:59.934Z,96917.63
2023-07-04T02:20:02.955Z,96911.41
2023-07-04T02:22:05.945Z,96915.19
2023-07-04T02:24:08.946Z,96913.59
2023-07-04T02:26:11.835Z,96915.50
2023-07-04T02:28:14.620Z,96916.88
2023-07-04T02:30:17.908Z,96911.47
2023-07-04T02:32:22.119Z,96908.75
2023-07-04T02:34:24.937Z,96911.19
2023-07-04T02:36:27.855Z,96907.66
2023-07-04T02:38:30.840Z,96907.41
2023-07-04T02:40:33.646Z,96917.13
2023-07-04T02:42:36.555Z,96913.59
2023-07-04T02:44:39.329Z,96911.72
2023-07-04T02:46:42.188Z,96917.13
2023-07-04T02:48:46.692Z,96914.69
2023-07-04T02:50:49.810Z,96911.19
2023-07-04T02:52:52.845Z,96909.88
2023-07-04T02:54:55.652Z,96907.44
2023-07-04T02:56:58.423Z,96915.28
2023-07-04T02:59:01.312Z,96919.88
2023-07-04T03:01:06.275Z,96912.03
2023-07-04T03:03:09.747Z,96916.38
2023-07-04T03:05:14.076Z,96914.47
2023-07-04T03:07:17.075Z,96917.44
2023-07-04T03:09:19.901Z,96916.66
2023-07-04T03:11:22.657Z,96917.44
2023-07-04T03:13:25.646Z,96919.34
2023-07-04T03:15:28.878Z,96915.84
2023-07-04T03:17:31.672Z,96912.34
2023-07-04T03:19:34.594Z,96913.13
2023-07-04T03:21:38.765Z,96918.53
2023-07-04T03:23:41.582Z,96904.22
2023-07-04T03:25:44.500Z,96911.53
2023-07-04T03:27:47.366Z,96906.13
2023-07-04T03:29:50.357Z,96911.00
2023-07-04T03:31:53.362Z,96905.03
2023-07-04T03:33:56.115Z,96906.13
2023-07-04T03:36:00.775Z,96913.44
2023-07-04T03:38:05.383Z,96902.91
2023-07-04T03:40:11.284Z,96907.50
2023-07-04T03:42:14.204Z,96898.88
2023-07-04T03:44:17.036Z,96909.69
2023-07-04T03:46:19.874Z,96904.56
2023-07-04T03:48:23.151Z,96908.34
2023-07-04T03:50:26.224Z,96900.25
2023-07-04T03:52:29.075Z,96905.66
2023-07-04T03:54:33.325Z,96912.97
2023-07-04T03:56:36.212Z,96911.31
2023-07-04T03:58:39.027Z,96918.63
2023-07-04T04:00:42.108Z,96910.50
2023-07-04T04:02:45.332Z,96906.47
2023-07-04T04:04:48.721Z,96903.78
2023-07-04T04:06:53.030Z,96900.56
2023-07-04T04:08:55.834Z,96899.75
2023-07-04T04:11:00.250Z,96905.97
2023-07-04T04:13:03.118Z,96901.94
2023-07-04T04:15:06.881Z,96891.13
2023-07-04T04:17:09.930Z,96893.81
2023-07-04T04:19:12.752Z,96900.31
2023-07-04T04:21:15.432Z,96894.38
2023-07-04T04:23:18.507Z,96892.75
2023-07-04T04:25:21.365Z,96888.44
2023-07-04T04:27:28.042Z,96886.00
2023-07-04T04:29:31.349Z,96890.59
2023-07-04T04:31:34.949Z,96893.59
2023-07-04T04:33:37.913Z,96887.38
2023-07-04T04:35:41.671Z,96886.28
2023-07-04T04:37:44.533Z,96888.19
2023-07-04T04:39:47.769Z,96885.19
2023-07-04T04:41:53.788Z,96886.81
2023-07-04T04:43:59.768Z,96887.63
2023-07-04T04:46:03.128Z,96887.63
2023-07-04T04:48:07.260Z,96884.41
2023-07-04T04:50:10.761Z,96890.59
2023-07-04T04:52:14.315Z,96897.63
2023-07-04T04:54:18.425Z,96883.03
2023-07-04T04:56:21.412Z,96898.44
2023-07-04T04:58:24.339Z,96894.13
2023-07-04T05:00:28.473Z,96895.72
2023-07-04T05:02:32.055Z,96898.44
2023-07-04T05:04:35.220Z,96890.59
2023-07-04T05:06:38.569Z,96899.53
2023-07-04T05:08:41.425Z,96891.13
2023-07-04T05:10:44.165Z,96895.72
2023-07-04T05:12:46.947Z,96895.22
2023-07-04T05:14:49.855Z,96897.63
2023-07-04T05:16:54.167Z,96886.81
2023-07-04T05:18:57.167Z,96895.72
2023-07-04T05:21:04.601Z,96896.81
2023-07-04T05:23:08.223Z,96889.22
2023-07-04T05:25:11.833Z,96890.31
2023-07-04T05:27:17.119Z,96879.22
2023-07-04T05:29:20.045Z,96891.13
2023-07-04T05:31:25.692Z,96893.78
2023-07-04T05:33:30.819Z,96888.81
2023-07-04T05:35:33.599Z,96891.19
2023-07-04T05:37:37.525Z,96894.63
2023-07-04T05:39:40.432Z,96894.28
2023-07-04T05:41:43.191Z,96894.19
2023-07-04T05:43:46.233Z,96885.19
2023-07-04T05:45:49.746Z,96892.13
2023-07-04T05:47:52.672Z,96889.63
2023-07-04T05:49:56.930Z,96889.00
2023-07-04T05:51:59.823Z,96891.56
2023-07-04T05:54:02.604Z,96889.84
2023-07-04T05:56:10.103Z,96892.56
2023-07-04T05:58:12.982Z,96902.72
2023-07-04T06:00:16.772Z,96894.28
2023-07-04T06:02:19.557Z,96906.13
2023-07-04T06:04:22.490Z,96904.19
2023-07-04T06:06:31.546Z,96911.44
2023-07-04T06:08:35.380Z,96904.41
2023-07-04T06:10:38.642Z,96910.94
2023-07-04T06:12:43.163Z,96906.69
2023-07-04T06:14:46.013Z,96898.59
2023-07-04T06:16:48.949Z,96903.72
2023-07-04T06:18:52.440Z,96898.31
2023-07-04T06:20:55.327Z,96905.03
2023-07-04T06:22:59.669Z,96905.41
2023-07-04T06:25:02.803Z,96898.41
2023-07-04T06:27:08.647Z,96895.50
2023-07-04T06:29:11.543Z,96899.88
2023-07-04T06:31:16.364Z,96894.47
2023-07-04T06:33:19.676Z,96900.47
2023-07-04T06:35:22.500Z,96900.16
2023-07-04T06:37:25.545Z,96897.72
2023-07-04T06:39:29.937Z,96890.41
2023-07-04T06:41:33.085Z,96889.06
2023-07-04T06:43:36.537Z,96890.75
2023-07-04T06:45:39.404Z,96891.94
2023-07-04T06:47:42.413Z,96896.84
2023-07-04T06:49:45.296Z,96893.88
2023-07-04T06:51:48.942Z,96900.88
2023-07-04T06:53:52.070Z,96896.31
2023-07-04T06:56:07.122Z,96901.72
2023-07-04T06:58:10.386Z,96912.81
2023-07-04T07:00:14.754Z,96906.31
2023-07-04T07:02:18.311Z,96900.66
2023-07-04T07:04:21.517Z,96896.06
2023-07-04T07:06:24.724Z,96903.88
2023-07-04T07:08:27.606Z,96895.25
2023-07-04T07:10:32.740Z,96907.13
2023-07-04T07:12:38.250Z,96912.56
2023-07-04T07:14:41.471Z,96903.34
2023-07-04T07:16:44.641Z,96909.56
2023-07-04T07:18:48.893Z,96903.34
2023-07-04T07:20:59.383Z,96911.72
2023-07-04T07:23:02.644Z,96917.97
2023-07-04T07:25:07.029Z,96915.25
2023-07-04T07:27:10.215Z,96913.09
2023-07-04T07:29:14.482Z,96907.47
2023-07-04T07:31:19.917Z,96916.91
2023-07-04T07:33:23.025Z,96913.09
2023-07-04T07:35:26.102Z,96907.69
2023-07-04T07:37:28.943Z,96908.78
2023-07-04T07:39:31.729Z,96914.47
2023-07-04T07:41:38.534Z,96906.66
2023-07-04T07:43:43.272Z,96903.94
2023-07-04T07:45:48.569Z,96904.47
2023-07-04T07:47:51.535Z,96908.78
2023-07-04T07:49:54.557Z,96902.28
2023-07-04T07:51:57.443Z,96899.03
2023-07-04T07:54:01.981Z,96904.44
2023-07-04T07:56:05.766Z,96902.75
2023-07-04T07:58:09.365Z,96905.97
2023-07-04T08:00:13.621Z,96895.38
2023-07-04T08:02:18.002Z,96905.94
2023-07-04T08:04:20.998Z,96903.75
2023-07-04T08:06:26.346Z,96904.84
2023-07-04T08:08:29.159Z,96899.44
2023-07-04T08:10:36.993Z,96899.94
2023-07-04T08:12:39.889Z,96897.25
2023-07-04T08:14:43.018Z,96902.38
2023-07-04T08:16:48.213Z,96902.06
2023-07-04T08:18:52.592Z,96898.78
2023-07-04T08:20:59.274Z,96902.59
2023-07-04T08:23:02.267Z,96900.69
2023-07-04T08:25:06.585Z,96890.13
2023-07-04T08:27:09.521Z,96893.66
2023-07-04T08:29:13.109Z,96900.69
2023-07-04T08:31:20.151Z,96900.16
2023-07-04T08:33:22.907Z,96892.34
2023-07-04T08:35:27.358Z,96894.25
2023-07-04T08:37:30.186Z,96893.72
2023-07-04T08:39:33.060Z,96889.97
2023-07-04T08:41:44.708Z,96893.25
2023-07-04T08:43:55.143Z,96890.84
2023-07-04T08:45:58.887Z,96890.03
2023-07-04T08:48:01.873Z,96894.94
2023-07-04T08:50:07.467Z,96891.41
2023-07-04T08:52:17.982Z,96895.22
2023-07-04T08:54:20.924Z,96891.72
2023-07-04T08:56:34.703Z,96890.91
2023-07-04T08:58:42.905Z,96892.25
2023-07-04T09:00:46.925Z,96891.44
2023-07-04T09:02:55.664Z,96898.47
2023-07-04T09:05:09.064Z,96891.44
2023-07-04T09:07:26.060Z,96888.75
2023-07-04T09:09:47.743Z,96891.22
2023-07-04T09:11:51.951Z,96889.91
2023-07-04T09:13:59.839Z,96882.63
2023-07-04T09:16:07.452Z,96885.59
2023-07-04T09:18:22.478Z,96882.88
2023-07-04T09:20:26.477Z,96881.28
2023-07-04T09:22:30.984Z,96883.44
2023-07-04T09:24:35.406Z,96887.75
2023-07-04T09:26:43.825Z,96871.50
2023-07-04T09:28:48.605Z,96884.22
2023-07-04T09:30:52.083Z,96882.34
2023-07-04T09:32:56.214Z,96879.63
2023-07-04T09:35:04.484Z,96875.03
2023-07-04T09:37:13.419Z,96882.59
2023-07-04T09:39:17.805Z,96883.41
2023-07-04T09:41:21.247Z,96883.63
2023-07-04T09:43:30.184Z,96882.22
2023-07-04T09:45:33.666Z,96875.22
2023-07-04T09:47:37.724Z,96879.00
2023-07-04T09:49:41.615Z,96880.63
2023-07-04T09:51:44.560Z,96873.59
2023-07-04T09:53:47.642Z,96875.22
2023-07-04T09:56:02.375Z,96875.22
2023-07-04T09:58:19.370Z,96872.00
2023-07-04T10:00:24.461Z,96879.31
2023-07-04T10:02:35.394Z,96873.88
2023-07-04T10:04:44.482Z,96866.28
2023-07-04T10:06:49.186Z,96863.59
2023-07-04T10:08:55.274Z,96866.00
2023-07-04T10:11:01.070Z,96874.13
2023-07-04T10:13:04.326Z,96865.19
2023-07-04T10:15:08.622Z,96867.91
2023-07-04T10:17:17.443Z,96864.38
2023-07-04T10:19:22.288Z,96868.19
2023-07-04T10:21:25.074Z,96869.00
2023-07-04T10:23:30.478Z,96863.88
2023-07-04T10:25:34.928Z,96862.78
2023-07-04T10:27:41.493Z,96860.06
2023-07-04T10:29:50.687Z,96864.38
2023-07-04T10:31:53.878Z,96861.94
2023-07-04T10:34:01.214Z,96861.63
2023-07-04T10:36:05.793Z,96864.06
2023-07-04T10:38:16.821Z,96861.88
2023-07-04T10:40:21.699Z,96863.47
2023-07-04T10:42:28.921Z,96861.28
2023-07-04T10:44:37.337Z,96854.50
2023-07-04T10:46:50.682Z,96856.38
2023-07-04T10:48:59.870Z,96847.72
2023-07-04T10:51:10.792Z,96853.13
2023-07-04T10:53:15.052Z,96843.09
2023-07-04T10:55:22.714Z,96844.72
2023-07-04T10:57:35.110Z,96842.50
2023-07-04T10:59:45.928Z,96844.63
2023-07-04T11:01:52.828Z,96840.06
2023-07-04T11:04:01.007Z,96835.44
2023-07-04T11:06:09.510Z,96833.50
2023-07-04T11:08:17.507Z,96826.19
2023-07-04T11:10:25.554Z,96825.38
2023-07-04T11:12:34.336Z,96819.97
2023-07-04T11:14:42.189Z,96825.09
2023-07-04T11:16:46.385Z,96824.00
2023-07-04T11:19:04.898Z,96823.41
2023-07-04T11:21:11.978Z,96825.59
2023-07-04T11:23:17.916Z,96820.69
2023-07-04T11:25:31.690Z,96808.53
2023-07-04T11:27:34.861Z,96814.47
2023-07-04T11:29:51.941Z,96808.75
2023-07-04T11:32:19.968Z,96808.50
2023-07-04T11:34:22.942Z,96805.50
2023-07-04T11:36:29.167Z,96804.91
2023-07-04T11:38:33.092Z,96803.81
2023-07-04T11:40:46.314Z,96803.81
2023-07-04T11:42:53.459Z,96797.28
2023-07-04T11:45:03.367Z,96794.59
2023-07-04T11:47:11.407Z,96797.00
2023-07-04T11:49:20.682Z,96787.50
2023-07-04T11:51:26.431Z,96786.41
2023-07-04T11:53:40.431Z,96782.31
2023-07-04T11:55:44.179Z,96787.41
2023-07-04T11:58:02.479Z,96785.22
2023-07-04T12:00:22.950Z,96779.00
2023-07-04T12:02:28.918Z,96781.72
2023-07-04T12:04:47.908Z,96776.00
2023-07-04T12:07:04.164Z,96771.91
2023-07-04T12:09:12.979Z,96777.03
2023-07-04T12:11:22.830Z,96771.63
2023-07-04T12:13:29.077Z,96764.00
2023-07-04T12:15:35.263Z,96764.00
2023-07-04T12:17:40.624Z,96766.13
2023-07-04T12:19:43.596Z,96755.28
2023-07-04T12:21:49.473Z,96756.38
2023-07-04T12:23:52.425Z,96759.09
2023-07-04T12:25:57.964Z,96752.56
2023-07-04T12:28:04.953Z,96750.38
2023-07-04T12:30:11.498Z,96749.28
2023-07-04T12:32:22.629Z,96749.56
2023-07-04T12:34:29.812Z,96747.66
2023-07-04T12:36:38.755Z,96746.56
2023-07-04T12:38:45.675Z,96744.38
2023-07-04T12:40:49.216Z,96745.19
2023-07-04T12:42:54.249Z,96744.38
2023-07-04T12:44:58.085Z,96749.81
2023-07-04T12:51:19.005Z,96742.47
2023-07-04T12:53:22.492Z,96736.75
2023-07-04T12:55:31.155Z,96735.38
2023-07-04T12:57:35.128Z,96737.78
2023-07-04T12:59:39.988Z,96731.56
2023-07-04T13:01:44.860Z,96736.66
2023-07-04T13:03:48.089Z,96739.59
2023-07-04T13:05:54.344Z,96732.00
2023-07-04T13:07:57.536Z,96733.59
2023-07-04T13:10:01.701Z,96725.19
2023-07-04T13:12:04.837Z,96726.78
2023-07-04T13:14:10.374Z,96722.97
2023-07-04T13:16:16.854Z,96723.28
2023-07-04T13:18:33.498Z,96715.13
2023-07-04T13:20:39.574Z,96712.72
2023-07-04T13:27:14.186Z,96707.81
2023-07-04T13:33:38.700Z,96707.50
2023-07-04T13:35:42.288Z,96697.47
2023-07-04T13:39:54.410Z,96706.94
2023-07-04T13:41:59.303Z,96689.31
2023-07-04T13:46:08.258Z,96683.28
2023-07-04T13:48:11.562Z,96680.56
2023-07-04T13:50:15.840Z,96677.88
2023-07-04T13:52:20.490Z,96678.16
2023-07-04T13:54:24.699Z,96674.34
2023-07-04T13:56:28.169Z,96674.06
2023-07-04T13:58:30.982Z,96667.53
2023-07-04T14:00:55.644Z,96668.03
2023-07-04T14:07:09.351Z,96665.00
2023-07-04T14:09:12.483Z,96668.53
2023-07-04T14:11:18.783Z,96665.81
2023-07-04T14:13:21.817Z,96664.72
2023-07-04T14:17:34.110Z,96667.94
2023-07-04T14:19:59.259Z,96666.03
2023-07-04T14:22:02.482Z,96661.44
2023-07-04T14:24:06.353Z,96665.75
2023-07-04T14:26:19.441Z,96667.34
2023-07-04T14:28:24.824Z,96658.09
2023-07-04T14:30:27.978Z,96664.03
2023-07-04T14:32:31.584Z,96655.41
2023-07-04T14:34:34.604Z,96663.53
2023-07-04T14:36:37.712Z,96658.09
2023-07-04T14:38:40.857Z,96656.19
2023-07-04T14:42:51.888Z,96648.06
2023-07-04T14:44:55.090Z,96646.47
2023-07-04T14:46:58.023Z,96638.03
2023-07-04T14:49:01.560Z,96637.72
2023-07-04T14:51:05.429Z,96640.66
2023-07-04T14:53:08.386Z,96635.75
2023-07-04T14:55:12.808Z,96639.44
2023-07-04T14:57:15.984Z,96630.22
2023-07-04T14:59:20.234Z,96627.50
2023-07-04T15:01:24.206Z,96620.47
2023-07-04T15:03:28.661Z,96627.50
2023-07-04T15:05:34.374Z,96621.75
2023-07-04T15:07:37.400Z,96620.97
2023-07-04T15:09:40.220Z,96624.78
2023-07-04T15:11:43.176Z,96619.06
2023-07-04T15:13:46.016Z,96611.44
2023-07-04T15:15:50.839Z,96611.44
2023-07-04T15:17:54.435Z,96605.72
2023-07-04T15:19:57.699Z,96608.44
2023-07-04T15:22:00.684Z,96600.28
2023-07-04T15:24:03.834Z,96606.81
2023-07-04T15:26:25.213Z,96610.63
2023-07-04T15:28:29.580Z,96608.44
2023-07-04T15:30:32.624Z,96611.44
2023-07-04T15:32:36.975Z,96603.59
2023-07-04T15:34:41.042Z,96603.59
2023-07-04T15:36:43.991Z,96599.28
2023-07-04T15:38:47.406Z,96601.69
2023-07-04T15:40:52.568Z,96599.78
2023-07-04T15:42:56.511Z,96603.59
2023-07-04T15:45:00.466Z,96602.78
2023-07-04T15:47:03.488Z,96603.59
2023-07-04T15:49:07.946Z,96604.69
2023-07-04T15:51:13.121Z,96596.56
2023-07-04T15:53:15.990Z,96601.69
2023-07-04T15:55:18.961Z,96597.06
2023-07-04T15:57:21.765Z,96599.78
2023-07-04T15:59:24.685Z,96593.25
2023-07-04T16:01:27.915Z,96597.06
2023-07-04T16:03:34.071Z,96601.41
2023-07-04T16:05:43.701Z,96603.00
2023-07-04T16:07:46.672Z,96595.38
2023-07-04T16:09:51.090Z,96598.09
2023-07-04T16:11:55.393Z,96588.34
2023-07-04T16:13:59.493Z,96593.75
2023-07-04T16:16:02.844Z,96592.16
2023-07-04T16:18:07.245Z,96591.34
2023-07-04T16:20:11.906Z,96592.97
2023-07-04T16:22:17.778Z,96599.19
2023-07-04T16:24:21.242Z,96588.34
2023-07-04T16:26:26.688Z,96594.56
2023-07-04T16:28:30.112Z,96595.38
2023-07-04T16:30:33.156Z,96593.75
2023-07-04T16:32:36.823Z,96594.56
2023-07-04T16:34:40.934Z,96593.75
2023-07-04T16:36:44.015Z,96594.56
2023-07-04T16:38:52.004Z,96587.22
2023-07-04T16:40:56.618Z,96587.22
2023-07-04T16:43:01.702Z,96589.16
2023-07-04T16:45:04.867Z,96588.84
2023-07-04T16:47:08.446Z,96587.72
2023-07-04T16:49:11.429Z,96585.03
2023-07-04T16:51:16.732Z,96587.44
2023-07-04T16:53:19.757Z,96585.03
2023-07-04T16:55:25.048Z,96591.25
2023-07-04T16:57:29.160Z,96583.91
2023-07-04T16:59:32.059Z,96585.50
2023-07-04T17:01:35.135Z,96589.03
2023-07-04T17:03:38.742Z,96580.09
2023-07-04T17:05:41.915Z,96589.34
2023-07-04T17:07:45.299Z,96597.16
2023-07-04T17:09:48.648Z,96589.81
2023-07-04T17:11:53.640Z,96590.94
2023-07-04T17:13:57.059Z,96590.94
2023-07-04T17:16:01.247Z,96590.94
2023-07-04T17:18:05.188Z,96595.56
2023-07-04T17:20:10.466Z,96595.56
2023-07-04T17:22:14.695Z,96597.16
2023-07-04T17:24:19.435Z,96599.06
2023-07-04T17:26:23.225Z,96597.16
2023-07-04T17:28:28.673Z,96597.16
2023-07-04T17:30:32.083Z,96595.56
2023-07-04T17:32:35.225Z,96597.66
2023-07-04T17:34:39.122Z,96601.16
2023-07-04T17:36:42.089Z,96602.81
2023-07-04T17:38:47.228Z,96612.84
2023-07-04T17:40:50.744Z,96612.56
2023-07-04T17:42:54.075Z,96610.63
2023-07-04T17:45:00.766Z,96614.16
2023-07-04T17:47:03.992Z,96609.22
2023-07-04T17:49:07.776Z,96607.31
2023-07-04T17:51:13.758Z,96617.84
2023-07-04T17:53:17.997Z,96612.94
2023-07-04T17:55:22.026Z,96612.63
2023-07-04T17:57:28.121Z,96620.47
2023-07-04T17:59:32.447Z,96621.28
2023-07-04T18:01:36.818Z,96615.84
2023-07-04T18:03:42.400Z,96615.56
2023-07-04T18:18:07.244Z,96610.84
2023-07-04T18:20:11.521Z,96611.06
2023-07-04T18:22:14.823Z,96612.06
2023-07-04T18:24:18.204Z,96606.63
2023-07-04T18:26:22.879Z,96604.72
2023-07-04T18:28:26.961Z,96613.16
2023-07-04T18:30:30.795Z,96607.75
2023-07-04T18:32:34.008Z,96602.63
2023-07-04T18:34:39.004Z,96608.84
2023-07-04T18:36:42.284Z,96603.41
2023-07-04T18:38:45.472Z,96605.63
2023-07-04T18:40:53.072Z,96601.28
2023-07-04T18:42:56.284Z,96604.31
2023-07-04T18:45:00.835Z,96606.22
2023-07-04T18:47:03.931Z,96597.59
2023-07-04T18:49:08.502Z,96610.63
2023-07-04T18:51:15.377Z,96605.81
2023-07-04T18:53:18.572Z,96608.00
2023-07-04T18:55:21.708Z,96607.50
2023-07-04T18:57:25.258Z,96607.81
2023-07-04T18:59:28.738Z,96605.41
2023-07-04T19:01:34.307Z,96613.84
2023-07-04T19:03:37.295Z,96608.72
2023-07-04T19:05:41.864Z,96614.47
2023-07-04T19:07:47.147Z,96601.47
2023-07-04T19:09:50.766Z,96614.22
2023-07-04T19:11:54.306Z,96616.94
2023-07-04T19:14:08.703Z,96627.31
2023-07-04T19:16:11.845Z,96615.34
2023-07-04T19:18:15.571Z,96632.72
2023-07-04T19:20:18.629Z,96615.66
2023-07-04T19:22:22.878Z,96620.28
2023-07-04T19:24:29.999Z,96620.56
2023-07-04T19:26:38.156Z,96624.41
2023-07-04T19:28:41.636Z,96622.50
2023-07-04T19:30:45.108Z,96622.78
2023-07-04T19:32:48.716Z,96621.19
2023-07-04T19:34:53.227Z,96631.22
2023-07-04T19:36:58.754Z,96635.84
2023-07-04T19:39:03.954Z,96632.63
2023-07-04T19:41:08.464Z,96641.06
2023-07-04T19:43:12.739Z,96639.44
2023-07-04T19:45:16.222Z,96641.34
2023-07-04T19:47:19.587Z,96632.41
2023-07-04T19:49:23.243Z,96632.91
2023-07-04T19:51:27.378Z,96635.94
2023-07-04T19:53:30.473Z,96640.56
2023-07-04T19:55:38.354Z,96644.38
2023-07-04T19:57:43.569Z,96641.47
2023-07-04T19:59:48.443Z,96648.19
2023-07-04T20:01:51.556Z,96646.59
2023-07-04T20:03:56.070Z,96651.50
2023-07-04T20:05:59.866Z,96649.88
2023-07-04T20:08:02.885Z,96652.88
2023-07-04T20:10:07.220Z,96649.38
2023-07-04T20:12:12.249Z,96648.88
2023-07-04T20:14:16.534Z,96650.78
2023-07-04T20:16:22.811Z,96650.78
2023-07-04T20:18:27.423Z,96654.59
2023-07-04T20:20:31.691Z,96653.28
2023-07-04T20:22:35.688Z,96656.00
2023-07-04T20:24:39.006Z,96652.78
2023-07-04T20:26:41.857Z,96653.59
2023-07-04T20:28:45.549Z,96653.06
2023-07-04T20:30:55.303Z,96658.47
2023-07-04T20:32:59.657Z,96655.78
2023-07-04T20:35:02.853Z,96662.31
2023-07-04T20:37:07.650Z,96658.78
2023-07-04T20:39:10.696Z,96654.97
2023-07-04T20:41:15.383Z,96658.78
2023-07-04T20:43:20.120Z,96647.94
2023-07-04T20:45:24.240Z,96651.75
2023-07-04T20:47:31.451Z,96657.97
2023-07-04T20:49:34.374Z,96651.75
2023-07-04T20:51:37.424Z,96663.41
2023-07-04T20:53:41.748Z,96659.88
2023-07-04T20:55:46.531Z,96657.78
2023-07-04T20:57:51.130Z,96661.00
2023-07-04T20:59:55.169Z,96670.22
2023-07-04T21:02:00.045Z,96668.63
2023-07-04T21:04:07.010Z,96666.72
2023-07-04T21:06:10.348Z,96664.00
2023-07-04T21:08:14.360Z,96666.22
2023-07-04T21:10:21.250Z,96661.59
2023-07-04T21:12:24.082Z,96662.69
2023-07-04T21:14:27.215Z,96663.81
2023-07-04T21:16:31.189Z,96652.97
2023-07-04T21:18:36.482Z,96650.56
2023-07-04T21:20:41.636Z,96651.38
2023-07-04T21:22:45.550Z,96652.47
2023-07-04T21:24:49.675Z,96661.66
2023-07-04T21:26:52.639Z,96657.34
2023-07-04T21:28:56.213Z,96649.50
2023-07-04T21:31:04.682Z,96647.09
2023-07-04T21:33:08.302Z,96657.94
2023-07-04T21:35:11.273Z,96646.59
2023-07-04T21:37:17.166Z,96643.38
2023-07-04T21:39:21.340Z,96639.88
2023-07-04T21:41:25.394Z,96648.00
2023-07-04T21:43:28.496Z,96644.47
2023-07-04T21:45:31.445Z,96651.81
2023-07-04T21:47:34.455Z,96651.00
2023-07-04T21:49:37.655Z,96647.47
2023-07-04T21:51:41.400Z,96646.66
2023-07-04T21:53:45.819Z,96650.47
2023-07-04T21:55:50.558Z,96653.72
2023-07-04T21:57:55.728Z,96649.38
2023-07-04T21:59:58.561Z,96646.66
2023-07-04T22:02:01.402Z,96648.06
2023-07-04T22:04:04.837Z,96649.66
2023-07-04T22:06:09.808Z,96648.06
2023-07-04T22:08:14.838Z,96647.75
2023-07-04T22:10:19.370Z,96647.25
2023-07-04T22:12:22.336Z,96642.13
2023-07-04T22:14:37.016Z,96653.28
2023-07-04T22:16:40.867Z,96654.09
2023-07-04T22:18:43.897Z,96657.09
2023-07-04T22:20:47.067Z,96658.69
2023-07-04T22:22:49.816Z,96658.69
2023-07-04T22:24:53.178Z,96658.69
2023-07-04T22:26:57.631Z,96652.19
2023-07-04T22:29:00.446Z,96656.50
2023-07-04T22:31:05.519Z,96654.59
2023-07-04T22:33:08.788Z,96648.06
2023-07-04T22:35:11.637Z,96645.84
2023-07-04T22:37:14.444Z,96653.97
2023-07-04T22:39:17.446Z,96652.06
2023-07-04T22:41:20.280Z,96643.69
2023-07-04T22:43:24.564Z,96646.66
2023-07-04T22:45:29.108Z,96648.28
2023-07-04T22:47:32.035Z,96635.81
2023-07-04T22:49:34.895Z,96643.69
2023-07-04T22:51:37.809Z,96649.91
2023-07-04T22:53:40.595Z,96665.34
2023-07-04T22:55:45.122Z,96670.78
2023-07-04T22:57:48.294Z,96670.78
2023-07-04T22:59:52.487Z,96665.34
2023-07-04T23:01:55.557Z,96662.91
2023-07-04T23:03:58.506Z,96661.31
2023-07-04T23:06:01.495Z,96662.91
2023-07-04T23:08:04.522Z,96657.50
2023-07-04T23:10:08.188Z,96643.94
2023-07-04T23:12:11.323Z,96645.06
2023-07-04T23:14:14.217Z,96653.47
2023-07-04T23:16:20.687Z,96652.69
2023-07-04T23:18:23.697Z,96651.88
2023-07-04T23:20:28.704Z,96653.78
2023-07-04T23:22:31.576Z,96660.31
2023-07-04T23:24:34.499Z,96651.38
2023-07-04T23:26:37.507Z,96656.28
2023-07-04T23:28:40.570Z,96657.91
2023-07-04T23:30:43.505Z,96653.28
2023-07-04T23:32:47.708Z,96655.50
2023-07-04T23:34:50.602Z,96655.50
2023-07-04T23:36:53.517Z,96658.19
2023-07-04T23:38:56.477Z,96656.59
2023-07-04T23:40:59.695Z,96664.72
2023-07-04T23:43:02.575Z,96668.53
2023-07-04T23:45:06.229Z,96671.25
2023-07-04T23:47:09.153Z,96676.66
2023-07-04T23:49:13.181Z,96675.03
2023-07-04T23:51:16.297Z,96684.25
2023-07-04T23:53:19.760Z,96681.53
2023-07-04T23:55:21.721Z,96687.75
2023-07-04T23:57:24.496Z,96686.97
2023-07-04T23:59:27.351Z,96679.94
